Cape Bradley — V7FK7 — position and weather

sailwx.info

Track history (hours):
 
Tides and Currents Weather Stations Pressure Air Temp Water Temp Dewpoint Dewpoint Depression Visibility Wind Speed Wind Dir Waves Ship Positions

Cape Bradley

Last reported at 2018-Jan-21 02:58 UTC. Time now 2018-Jan-21 07:04 UTC.
Position N 36°27' W 003°57'.

Length 176 m; draft 7.5 m.

Type: Tanker. MMSI: 538001963.

Date/timePositionNaut miles runAvg speedWind from/ knotsBaromVisibWave heightAir tempDewpointWater temp
2018-Jan-21 02:58N 36°27' W 003°57'1 0.8
2018-Jan-21 02:16N 36°27' W 003°58'0 0.7
2018-Jan-21 01:59N 36°27' W 003°58'0 0.6
2018-Jan-21 01:28N 36°27' W 003°58'0 0.7
2018-Jan-21 00:57N 36°26' W 003°59'0 0.9
2018-Jan-21 00:27N 36°26' W 003°59'0 1.0
2018-Jan-20 23:59N 36°26' W 003°60'1 1.2
2018-Jan-20 23:05N 36°26' W 004°01'0 1.4
2018-Jan-20 22:57N 36°26' W 004°01'2 3.2
2018-Jan-20 22:26N 36°25' W 003°60'510.7
2018-Jan-20 21:59N 36°22' W 003°56'5 0.6
2018-Jan-20 13:40N 36°21' W 003°49'6 1.0
2018-Jan-20 07:57N 36°23' W 003°55'8 8.4
2018-Jan-20 06:59N 36°29' W 003°49'1 1.4
2018-Jan-20 06:30N 36°29' W 003°48'1 1.2
2018-Jan-20 06:00N 36°28' W 003°48'1 1.4
2018-Jan-20 05:30N 36°28' W 003°48'1 1.4
2018-Jan-20 05:00N 36°27' W 003°47'1 1.2
2018-Jan-20 04:30N 36°27' W 003°47'0 0.6
2018-Jan-20 04:00N 36°27' W 003°46'0 0.7
2018-Jan-20 03:29N 36°26' W 003°46'2 0.7
2018-Jan-20 00:54N 36°25' W 003°44'1 0.8
2018-Jan-19 23:10N 36°24' W 003°44'12 0.2
2018-Jan-18 00:47N 36°24' W 003°58'1 0.7
2018-Jan-17 23:43N 36°24' W 003°59'  
Track history (hours):
 
Tides and Currents Weather Stations Pressure Air Temp Water Temp Dewpoint Dewpoint Depression Visibility Wind Speed Wind Dir Waves Ship Positions

Cape Bradley

Last reported at 2018-Jan-21 02:58 UTC. Time now 2018-Jan-21 07:04 UTC.
Position N 36°27' W 003°57'.

Length 176 m; draft 7.5 m.

Type: Tanker. MMSI: 538001963.

Date/timePositionNaut miles runAvg speedWind from/ knotsBaromVisibWave heightAir tempDewpointWater temp
2018-Jan-21 02:58N 36°27' W 003°57'1 0.8
2018-Jan-21 02:16N 36°27' W 003°58'0 0.7
2018-Jan-21 01:59N 36°27' W 003°58'0 0.6
2018-Jan-21 01:28N 36°27' W 003°58'0 0.7
2018-Jan-21 00:57N 36°26' W 003°59'0 0.9
2018-Jan-21 00:27N 36°26' W 003°59'0 1.0
2018-Jan-20 23:59N 36°26' W 003°60'1 1.2
2018-Jan-20 23:05N 36°26' W 004°01'0 1.4
2018-Jan-20 22:57N 36°26' W 004°01'2 3.2
2018-Jan-20 22:26N 36°25' W 003°60'510.7
2018-Jan-20 21:59N 36°22' W 003°56'5 0.6
2018-Jan-20 13:40N 36°21' W 003°49'6 1.0
2018-Jan-20 07:57N 36°23' W 003°55'8 8.4
2018-Jan-20 06:59N 36°29' W 003°49'1 1.4
2018-Jan-20 06:30N 36°29' W 003°48'1 1.2
2018-Jan-20 06:00N 36°28' W 003°48'1 1.4
2018-Jan-20 05:30N 36°28' W 003°48'1 1.4
2018-Jan-20 05:00N 36°27' W 003°47'1 1.2
2018-Jan-20 04:30N 36°27' W 003°47'0 0.6
2018-Jan-20 04:00N 36°27' W 003°46'0 0.7
2018-Jan-20 03:29N 36°26' W 003°46'2 0.7
2018-Jan-20 00:54N 36°25' W 003°44'1 0.8
2018-Jan-19 23:10N 36°24' W 003°44'12 0.2
2018-Jan-18 00:47N 36°24' W 003°58'1 0.7
2018-Jan-17 23:43N 36°24' W 003°59'  

Dump ship's entire track history